Time;durP1;ratioP1;P1;durP2;ratioP2;P2;SDS_P1;SDS_P2;PMS_P1;PMS_P2;Temp;Humidity;BMP_temperature;BMP_pressure;BME280_temperature;BME280_humidity;BME280_pressure;Samples;Min_cycle;Max_cycle;Signal;HPM_P1;HPM_P2
2023/03/07 00:00:25;;;;;;;;;19.67;19.67;;;;;8.51;54.50;100118.19;5019430;28;53919;-77
2023/03/07 00:02:51;;;;;;;;;24.00;21.67;;;;;8.52;54.54;100141.03;5019116;28;45479;-75
2023/03/07 00:05:16;;;;;;;;;21.00;19.67;;;;;8.44;54.36;100128.53;5019502;28;45395;-74
2023/03/07 00:07:42;;;;;;;;;19.33;15.00;;;;;8.52;54.82;100131.28;5040185;28;45441;-76
2023/03/07 00:10:08;;;;;;;;;22.67;20.67;;;;;8.46;54.67;100115.97;5040245;28;46350;-73
2023/03/07 00:12:34;;;;;;;;;31.00;23.33;;;;;7.63;54.81;99985.28;5038495;28;46187;-72
2023/03/07 00:14:59;;;;;;;;;24.00;16.00;;;;;8.45;55.24;100132.84;5039896;28;45363;-74
2023/03/07 00:17:24;;;;;;;;;20.33;16.33;;;;;7.58;54.60;99982.19;5039799;28;45478;-74
2023/03/07 00:19:50;;;;;;;;;27.00;23.67;;;;;7.72;55.10;100009.19;5038585;28;45537;-73
2023/03/07 00:22:15;;;;;;;;;25.33;21.33;;;;;8.01;55.64;100086.69;5039705;28;45245;-74
2023/03/07 00:24:40;;;;;;;;;26.00;20.67;;;;;8.10;55.19;100077.88;5038338;28;45280;-73
2023/03/07 00:27:06;;;;;;;;;20.00;19.00;;;;;7.63;55.45;100021.47;5038400;28;45204;-72
2023/03/07 00:29:31;;;;;;;;;20.33;18.00;;;;;7.83;55.04;100025.75;5037721;28;45288;-74
2023/03/07 00:31:56;;;;;;;;;25.00;20.67;;;;;8.35;54.71;100107.38;5035871;28;49384;-74
2023/03/07 00:34:22;;;;;;;;;20.33;19.00;;;;;8.19;55.45;100102.66;5038686;28;45214;-73
2023/03/07 00:36:47;;;;;;;;;26.67;22.67;;;;;8.21;55.43;100106.84;5036242;28;45870;-74
2023/03/07 00:39:12;;;;;;;;;27.00;23.00;;;;;7.80;55.15;100039.22;5038359;28;46148;-71
2023/03/07 00:41:38;;;;;;;;;22.67;22.00;;;;;7.85;54.94;100052.06;5038750;28;45242;-73
2023/03/07 00:44:03;;;;;;;;;27.67;20.00;;;;;8.22;54.81;100100.56;5036979;28;45336;-73
2023/03/07 00:46:29;;;;;;;;;22.33;20.67;;;;;8.27;54.99;100109.88;5038613;28;45238;-74
2023/03/07 00:48:54;;;;;;;;;24.00;20.33;;;;;7.83;55.19;100033.69;5036391;28;45894;-72
2023/03/07 00:51:22;;;;;;;;;27.33;20.33;;;;;8.17;55.28;100078.97;5036383;28;45771;-71
2023/03/07 00:53:48;;;;;;;;;26.00;21.00;;;;;8.30;54.91;100093.69;5032499;28;45597;-73
2023/03/07 00:56:14;;;;;;;;;22.33;21.00;;;;;8.27;54.87;100096.66;5019000;28;45442;-74
2023/03/07 00:58:39;;;;;;;;;29.67;22.67;;;;;8.22;54.84;100086.50;5057332;28;45651;-75
2023/03/07 01:01:06;;;;;;;;;16.00;14.67;;;;;8.27;54.90;100086.88;5057155;28;45471;-73
2023/03/07 01:03:33;;;;;;;;;26.33;23.00;;;;;7.45;54.84;99939.38;5058430;28;45506;-74
2023/03/07 01:06:02;;;;;;;;;20.00;19.00;;;;;8.16;54.89;100085.25;5041526;28;45233;-74
2023/03/07 01:08:28;;;;;;;;;26.33;22.00;;;;;7.94;55.19;100061.75;5038048;28;48704;-73
2023/03/07 01:10:58;;;;;;;;;30.00;24.00;;;;;8.06;55.06;100047.38;5037358;28;45285;-75
2023/03/07 01:13:24;;;;;;;;;21.00;17.33;;;;;7.29;54.70;99920.63;5036744;28;45304;-72
2023/03/07 01:15:49;;;;;;;;;19.67;17.00;;;;;8.21;54.92;100064.47;5038213;28;45347;-73
2023/03/07 01:18:15;;;;;;;;;22.67;15.33;;;;;8.02;54.73;100038.06;5037744;28;45502;-72
2023/03/07 01:20:40;;;;;;;;;21.33;19.67;;;;;7.92;54.83;100006.34;5036323;28;45826;-74
2023/03/07 01:23:06;;;;;;;;;23.33;20.00;;;;;8.17;55.17;100057.78;5022704;28;45452;-73
2023/03/07 01:25:37;;;;;;;;;24.33;24.33;;;;;7.66;54.87;99962.97;5018320;28;45440;-73
2023/03/07 01:28:03;;;;;;;;;23.67;22.67;;;;;7.65;54.98;99971.91;5017964;28;46129;-72
2023/03/07 01:30:28;;;;;;;;;21.33;19.00;;;;;7.66;55.17;99978.03;5016667;28;45309;-72
2023/03/07 01:32:58;;;;;;;;;20.00;19.00;;;;;8.05;55.35;100026.34;5036871;28;59880;-73
2023/03/07 01:35:24;;;;;;;;;19.00;17.33;;;;;8.12;55.03;100044.16;5036742;28;45559;-75
2023/03/07 01:37:51;;;;;;;;;16.67;16.67;;;;;8.03;55.27;100023.03;5040237;28;46097;-73
2023/03/07 01:40:17;;;;;;;;;24.00;20.67;;;;;8.13;55.41;100023.81;5040110;28;45343;-75
2023/03/07 01:42:42;;;;;;;;;22.67;20.00;;;;;7.93;55.03;100001.88;5038285;28;45381;-74
2023/03/07 01:45:10;;;;;;;;;26.67;22.00;;;;;8.11;54.74;100021.31;5032511;28;45222;-74
2023/03/07 01:47:36;;;;;;;;;21.67;19.67;;;;;8.11;55.37;100016.00;5022628;28;47411;-74
2023/03/07 01:50:05;;;;;;;;;26.33;20.67;;;;;8.04;54.77;100004.34;5052830;28;46636;-74
2023/03/07 01:52:40;;;;;;;;;22.00;20.67;;;;;8.02;54.91;100003.66;5037408;28;45292;-74
2023/03/07 01:55:30;;;;;;;;;20.67;18.33;;;;;7.77;54.86;99962.78;5037656;28;45286;-75
2023/03/07 01:57:59;;;;;;;;;25.67;20.00;;;;;8.10;55.35;100011.69;5052503;28;48009;-73
2023/03/07 02:00:28;;;;;;;;;27.33;20.67;;;;;7.88;54.98;99969.72;5036895;28;45302;-72
2023/03/07 02:03:06;;;;;;;;;26.00;22.67;;;;;8.07;55.37;99998.75;5031549;28;45675;-74
2023/03/07 02:05:36;;;;;;;;;21.67;19.33;;;;;7.94;55.26;99988.50;5016564;28;45367;-74
2023/03/07 02:08:03;;;;;;;;;23.00;21.33;;;;;7.99;55.35;100005.75;5049214;28;46420;-75
2023/03/07 02:10:31;;;;;;;;;25.00;21.67;;;;;7.97;55.15;99990.00;5015646;28;45880;-72
2023/03/07 02:12:56;;;;;;;;;22.67;20.67;;;;;7.97;55.59;99975.94;5022158;28;45314;-73
2023/03/07 02:15:22;;;;;;;;;21.33;20.00;;;;;8.03;55.13;99972.72;5037261;28;45470;-72
2023/03/07 02:17:48;;;;;;;;;19.67;19.00;;;;;8.04;54.92;99975.22;5036716;28;46648;-73
2023/03/07 02:20:33;;;;;;;;;23.00;19.33;;;;;8.04;55.40;99977.88;5022385;28;45829;-74
2023/03/07 02:22:58;;;;;;;;;18.67;14.67;;;;;8.11;54.85;99970.16;5034183;28;45344;-72
2023/03/07 02:25:29;;;;;;;;;25.67;20.67;;;;;7.09;55.53;99818.56;5038104;28;45591;-72
2023/03/07 02:27:57;;;;;;;;;21.33;20.00;;;;;7.86;55.51;99937.28;5036661;28;46537;-73
2023/03/07 02:30:22;;;;;;;;;21.67;19.67;;;;;8.03;55.20;99976.22;5032674;28;46358;-73
2023/03/07 02:32:48;;;;;;;;;24.67;19.00;;;;;8.00;55.50;99984.41;5016815;28;45578;-71
2023/03/07 02:35:16;;;;;;;;;20.67;20.00;;;;;6.38;55.00;99685.16;5017012;28;45404;-74
2023/03/07 02:37:45;;;;;;;;;19.00;18.00;;;;;8.05;55.06;99966.31;5018580;28;45817;-72
2023/03/07 02:40:15;;;;;;;;;24.67;20.67;;;;;8.03;54.92;99952.38;5036334;28;45731;-73
2023/03/07 02:42:42;;;;;;;;;28.33;25.33;;;;;7.99;55.04;99960.75;5034912;28;45265;-74
2023/03/07 02:45:10;;;;;;;;;23.67;19.67;;;;;7.92;55.56;99957.84;5036682;28;45377;-73
2023/03/07 02:47:36;;;;;;;;;23.67;22.00;;;;;7.75;55.49;99916.28;5036436;28;46279;-73
2023/03/07 02:50:01;;;;;;;;;19.00;16.67;;;;;7.77;55.25;99911.69;5035173;28;45490;-73
2023/03/07 02:52:28;;;;;;;;;20.00;19.67;;;;;7.90;55.38;99943.94;5030221;28;45400;-74
2023/03/07 02:54:54;;;;;;;;;16.00;16.00;;;;;7.98;55.64;99956.44;5015714;28;45540;-73
2023/03/07 02:57:20;;;;;;;;;24.00;20.00;;;;;7.77;55.78;99916.97;5014381;28;45776;-74
2023/03/07 02:59:45;;;;;;;;;22.67;19.33;;;;;7.66;55.57;99896.84;5016002;28;45376;-74
2023/03/07 03:02:10;;;;;;;;;20.00;20.00;;;;;7.88;55.56;99930.03;5015452;28;45418;-75
2023/03/07 03:04:36;;;;;;;;;21.67;21.67;;;;;7.90;55.59;99934.19;5028925;28;45328;-74
2023/03/07 03:07:01;;;;;;;;;22.00;19.00;;;;;7.82;55.22;99928.81;5036446;28;45368;-74
2023/03/07 03:09:27;;;;;;;;;20.33;19.67;;;;;7.41;55.30;99853.38;5036480;28;45254;-75
2023/03/07 03:11:52;;;;;;;;;11.67;11.67;;;;;7.89;55.65;99940.47;5034294;28;45484;-74
2023/03/07 03:14:18;;;;;;;;;23.67;18.00;;;;;7.82;55.70;99938.56;5030982;28;45164;-75
2023/03/07 03:16:43;;;;;;;;;20.67;18.33;;;;;7.39;55.95;99865.88;5023975;28;45293;-73
2023/03/07 03:19:08;;;;;;;;;16.33;16.33;;;;;7.80;55.78;99927.25;5036924;28;45484;-74
2023/03/07 03:21:34;;;;;;;;;21.00;17.33;;;;;7.80;55.51;99929.91;5044682;28;45351;-71
2023/03/07 03:24:06;;;;;;;;;19.00;17.33;;;;;7.85;55.56;99906.50;5044980;28;45544;-73
2023/03/07 03:26:33;;;;;;;;;20.67;18.67;;;;;7.67;55.53;99889.75;5042321;28;45511;-75
2023/03/07 03:28:58;;;;;;;;;22.00;19.00;;;;;7.79;55.33;99913.19;5039498;28;46535;-75
2023/03/07 03:31:24;;;;;;;;;18.67;17.67;;;;;7.65;56.01;99884.59;5039437;28;45520;-70
2023/03/07 03:33:51;;;;;;;;;17.33;14.67;;;;;7.75;55.64;99911.00;5040031;28;45659;-75
2023/03/07 03:36:17;;;;;;;;;18.67;15.00;;;;;7.70;56.08;99897.38;5039528;28;45734;-73
2023/03/07 03:38:43;;;;;;;;;19.67;18.00;;;;;7.35;56.11;99831.97;5039512;28;45400;-74
2023/03/07 03:41:14;;;;;;;;;17.67;15.67;;;;;7.61;56.08;99881.41;5038434;28;45577;-74
2023/03/07 03:43:40;;;;;;;;;17.67;17.33;;;;;7.76;55.65;99899.44;5038661;28;45482;-74
2023/03/07 03:46:05;;;;;;;;;19.67;18.33;;;;;7.67;55.81;99889.75;5039402;28;46272;-73
2023/03/07 03:48:31;;;;;;;;;20.00;19.00;;;;;7.71;56.19;99883.16;5035594;28;45502;-75
2023/03/07 03:51:13;;;;;;;;;21.33;21.33;;;;;7.28;55.81;99821.13;5018307;28;45377;-73
2023/03/07 03:53:39;;;;;;;;;19.67;18.00;;;;;6.98;55.99;99772.00;5018295;28;45512;-73
2023/03/07 03:56:05;;;;;;;;;28.00;26.33;;;;;7.67;55.84;99884.44;5024575;28;45762;-74
2023/03/07 03:58:32;;;;;;;;;27.33;20.67;;;;;6.69;56.20;99721.91;5030250;28;45444;-73
2023/03/07 04:01:00;;;;;;;;;20.67;19.33;;;;;7.53;56.44;99865.41;5034003;28;45617;-76
2023/03/07 04:03:26;;;;;;;;;17.67;14.33;;;;;6.98;56.56;99767.53;5021314;28;45445;-73
2023/03/07 04:05:51;;;;;;;;;24.00;20.33;;;;;7.67;56.13;99873.88;5028291;28;45299;-74
2023/03/07 04:08:16;;;;;;;;;22.33;19.67;;;;;7.41;56.39;99840.16;5036095;28;45364;-74
2023/03/07 04:10:42;;;;;;;;;22.33;21.00;;;;;7.70;55.98;99870.91;5036583;28;45483;-72
2023/03/07 04:13:07;;;;;;;;;19.00;19.00;;;;;7.58;56.20;99852.59;5037737;28;45317;-74
2023/03/07 04:15:33;;;;;;;;;21.33;18.67;;;;;7.70;56.43;99884.16;5037899;28;46164;-74
2023/03/07 04:17:58;;;;;;;;;25.67;21.00;;;;;7.28;56.21;99797.34;5036498;28;45344;-74
2023/03/07 04:20:23;;;;;;;;;24.33;20.33;;;;;6.94;56.54;99745.03;5023204;28;45396;-72
2023/03/07 04:22:49;;;;;;;;;24.67;22.33;;;;;6.89;56.55;99747.28;5026970;28;45155;-75
2023/03/07 04:25:14;;;;;;;;;21.00;20.33;;;;;7.47;56.55;99844.84;5035066;28;47174;-74
2023/03/07 04:27:40;;;;;;;;;20.33;18.00;;;;;7.08;56.44;99769.31;5038112;28;45253;-76
2023/03/07 04:30:06;;;;;;;;;21.00;19.00;;;;;7.54;56.62;99838.00;5023170;28;45283;-72
2023/03/07 04:32:31;;;;;;;;;24.33;20.67;;;;;7.49;56.11;99848.19;5033257;28;45431;-74
2023/03/07 04:34:57;;;;;;;;;25.67;23.67;;;;;6.71;56.74;99727.88;5034125;28;46388;-75
2023/03/07 04:37:22;;;;;;;;;27.67;26.33;;;;;7.67;56.46;99881.81;5038473;28;45502;-75
2023/03/07 04:39:47;;;;;;;;;25.67;19.00;;;;;7.54;56.45;99859.16;5038298;28;46889;-72
2023/03/07 04:42:13;;;;;;;;;17.67;15.00;;;;;6.44;56.69;99667.09;5037339;28;45373;-74
2023/03/07 04:44:38;;;;;;;;;23.67;23.00;;;;;7.71;56.65;99869.94;5023994;28;46228;-75
2023/03/07 04:47:04;;;;;;;;;26.00;21.33;;;;;7.28;56.13;99790.25;5017033;28;45484;-74
2023/03/07 04:49:29;;;;;;;;;25.33;22.00;;;;;6.75;56.10;99696.72;5028748;28;45316;-73
2023/03/07 04:51:54;;;;;;;;;26.67;19.67;;;;;6.94;56.25;99731.00;5038565;28;45937;-74
2023/03/07 04:54:20;;;;;;;;;25.00;19.67;;;;;7.65;56.60;99849.38;5033004;28;47033;-73
2023/03/07 04:56:45;;;;;;;;;21.00;19.67;;;;;7.24;56.40;99788.03;5027731;28;45376;-74
2023/03/07 04:59:10;;;;;;;;;18.67;18.00;;;;;7.18;56.45;99780.69;5024580;28;45487;-73
2023/03/07 05:01:36;;;;;;;;;23.33;21.33;;;;;7.16;56.79;99780.00;5033945;28;45508;-73
2023/03/07 05:04:01;;;;;;;;;31.33;23.33;;;;;7.46;56.81;99851.13;5037978;28;46655;-72
2023/03/07 05:06:26;;;;;;;;;20.00;15.67;;;;;7.20;57.04;99808.63;5036755;28;45372;-73
2023/03/07 05:08:52;;;;;;;;;26.00;20.67;;;;;7.49;57.42;99850.84;5035480;28;45533;-73
2023/03/07 05:11:17;;;;;;;;;18.33;15.67;;;;;7.46;57.40;99847.66;5036746;28;45452;-71
2023/03/07 05:13:43;;;;;;;;;22.67;21.33;;;;;7.44;57.79;99852.25;5037818;28;45661;-73
2023/03/07 05:16:08;;;;;;;;;18.67;16.67;;;;;6.75;57.01;99728.41;5037942;28;45237;-76
2023/03/07 05:18:33;;;;;;;;;21.00;20.00;;;;;7.47;57.10;99846.66;5036868;28;45422;-75
2023/03/07 05:20:59;;;;;;;;;19.00;17.00;;;;;6.87;57.73;99759.81;5038857;28;45506;-74
2023/03/07 05:23:24;;;;;;;;;20.33;17.67;;;;;6.84;57.57;99730.22;5036387;28;48092;-73
2023/03/07 05:25:49;;;;;;;;;20.67;19.00;;;;;7.04;57.32;99770.59;5036579;28;45435;-75
2023/03/07 05:28:16;;;;;;;;;21.33;18.67;;;;;7.25;57.15;99811.69;5036577;28;45286;-74
2023/03/07 05:30:43;;;;;;;;;23.00;19.33;;;;;7.04;57.62;99765.31;5036780;28;45416;-75
2023/03/07 05:33:08;;;;;;;;;24.50;20.00;;;;;7.33;57.24;99805.66;5037409;28;45595;-74
2023/03/07 05:35:34;;;;;;;;;27.33;24.33;;;;;6.43;57.43;99670.72;5034792;28;46405;-73
2023/03/07 05:37:59;;;;;;;;;23.00;23.00;;;;;6.96;57.72;99766.03;5036083;28;45360;-74
2023/03/07 05:40:25;;;;;;;;;15.33;15.00;;;;;7.03;57.63;99779.50;5038056;28;45384;-72
2023/03/07 05:42:50;;;;;;;;;20.67;18.33;;;;;7.44;57.61;99847.81;5032411;28;47402;-74
2023/03/07 05:45:15;;;;;;;;;21.00;18.33;;;;;7.30;57.28;99805.97;5016103;28;46075;-73
2023/03/07 05:47:41;;;;;;;;;21.67;20.33;;;;;7.45;57.57;99828.31;5016062;28;45198;-71
2023/03/07 05:50:08;;;;;;;;;19.33;18.67;;;;;7.30;57.33;99795.38;5017751;28;45283;-73
2023/03/07 05:52:33;;;;;;;;;23.33;17.67;;;;;7.41;57.51;99834.88;5016086;28;47983;-74
2023/03/07 05:54:58;;;;;;;;;20.33;17.67;;;;;7.46;57.25;99819.41;5016105;28;45300;-74
2023/03/07 05:57:24;;;;;;;;;22.67;21.33;;;;;6.46;57.44;99665.97;5024876;28;45371;-74
2023/03/07 05:59:49;;;;;;;;;18.67;17.00;;;;;6.11;57.63;99587.44;5034892;28;45229;-75
2023/03/07 06:02:14;;;;;;;;;21.00;20.00;;;;;6.68;57.40;99680.63;5028651;28;45664;-73
2023/03/07 06:04:40;;;;;;;;;20.67;20.67;;;;;7.46;57.43;99803.53;5035762;28;45526;-73
2023/03/07 06:07:05;;;;;;;;;20.67;19.67;;;;;6.88;57.43;99716.56;5036390;28;45490;-72
2023/03/07 06:09:31;;;;;;;;;23.33;20.00;;;;;7.44;57.33;99810.78;5037051;28;45277;-75
2023/03/07 06:11:56;;;;;;;;;19.00;17.00;;;;;7.49;57.72;99805.88;5036173;28;46434;-73
2023/03/07 06:14:22;;;;;;;;;21.67;20.33;;;;;6.86;57.47;99707.13;5036763;28;45376;-73
2023/03/07 06:16:48;;;;;;;;;25.00;20.33;;;;;7.37;57.78;99799.09;5036452;28;45505;-73
2023/03/07 06:19:13;;;;;;;;;19.67;18.00;;;;;6.65;57.26;99671.19;5035581;28;45327;-74
2023/03/07 06:21:38;;;;;;;;;25.00;21.00;;;;;6.76;57.23;99693.94;5035427;28;45485;-74
2023/03/07 06:24:06;;;;;;;;;18.33;14.67;;;;;6.40;57.06;99640.97;5036913;28;45429;-73
2023/03/07 06:26:32;;;;;;;;;23.67;21.00;;;;;6.93;57.14;99709.03;5041399;28;45222;-75
2023/03/07 06:28:58;;;;;;;;;23.33;19.00;;;;;7.55;57.07;99810.56;5036221;28;45489;-76
2023/03/07 06:31:24;;;;;;;;;22.00;20.33;;;;;7.12;57.21;99738.97;5037536;28;46652;-75
2023/03/07 06:33:50;;;;;;;;;19.00;17.50;;;;;7.63;56.86;99821.25;5033811;28;45388;-72
2023/03/07 06:36:17;;;;;;;;;19.00;18.00;;;;;6.81;57.07;99670.56;5018342;28;45338;-73
2023/03/07 06:38:43;;;;;;;;;19.67;17.33;;;;;7.50;56.74;99778.44;5054242;28;45301;-75
2023/03/07 06:41:08;;;;;;;;;19.33;17.67;;;;;7.73;56.45;99804.47;5049930;28;45550;-73
2023/03/07 06:43:34;;;;;;;;;23.67;20.00;;;;;7.72;56.62;99802.81;5050044;28;45537;-75
2023/03/07 06:46:01;;;;;;;;;16.67;16.33;;;;;6.77;56.67;99647.22;5017455;28;45381;-76
2023/03/07 06:48:26;;;;;;;;;20.33;18.67;;;;;7.13;56.94;99708.94;5020306;28;45294;-73
2023/03/07 06:50:51;;;;;;;;;19.33;18.67;;;;;7.76;57.11;99806.81;5023286;28;46071;-75
2023/03/07 06:53:17;;;;;;;;;18.00;12.00;;;;;6.57;57.09;99620.88;5039333;28;45357;-74
2023/03/07 06:55:47;;;;;;;;;17.67;13.67;;;;;7.73;56.28;99794.72;5039316;28;45328;-76
2023/03/07 06:58:12;;;;;;;;;22.33;19.00;;;;;7.14;56.68;99703.50;5038931;28;45649;-75
2023/03/07 07:00:37;;;;;;;;;20.33;18.00;;;;;6.92;56.81;99665.09;5040440;28;45381;-74
2023/03/07 07:03:03;;;;;;;;;23.00;19.00;;;;;6.54;56.65;99601.88;5039240;28;45384;-74
2023/03/07 07:05:28;;;;;;;;;18.00;16.67;;;;;7.11;56.63;99682.66;5038506;28;45480;-74
2023/03/07 07:07:53;;;;;;;;;19.33;17.33;;;;;6.41;56.46;99578.47;5038817;28;45543;-74
2023/03/07 07:10:19;;;;;;;;;22.00;17.67;;;;;7.36;56.53;99754.28;5038567;28;48118;-75
2023/03/07 07:12:44;;;;;;;;;23.67;21.67;;;;;7.32;56.60;99743.19;5039871;28;45354;-73
2023/03/07 07:15:10;;;;;;;;;24.00;20.00;;;;;7.25;56.63;99726.25;5040174;28;45313;-76
2023/03/07 07:17:35;;;;;;;;;23.33;17.67;;;;;7.70;57.01;99808.25;5040049;28;45496;-74
2023/03/07 07:20:05;;;;;;;;;25.67;19.00;;;;;7.68;56.47;99796.16;5038036;28;46075;-74
2023/03/07 07:22:31;;;;;;;;;14.67;14.67;;;;;7.57;56.40;99789.25;5071988;28;45375;-76
2023/03/07 07:24:57;;;;;;;;;23.33;17.33;;;;;7.72;56.76;99813.41;5038788;28;45488;-75
2023/03/07 07:27:23;;;;;;;;;23.33;18.33;;;;;7.50;56.91;99781.09;5038462;28;45281;-73
2023/03/07 07:29:48;;;;;;;;;21.00;19.33;;;;;7.59;56.93;99801.34;5038272;28;47487;-74
2023/03/07 07:32:14;;;;;;;;;18.00;14.33;;;;;7.71;56.87;99809.09;5040727;28;45565;-73
2023/03/07 07:34:39;;;;;;;;;19.33;16.67;;;;;6.54;56.26;99612.44;5039236;28;45456;-75
2023/03/07 07:37:05;;;;;;;;;19.00;17.50;;;;;7.64;56.84;99795.63;5039114;28;45478;-75
2023/03/07 07:39:30;;;;;;;;;17.00;14.00;;;;;7.35;56.37;99737.59;5038245;28;45504;-73
2023/03/07 07:41:56;;;;;;;;;16.00;14.33;;;;;7.83;56.49;99810.56;5025682;28;45412;-74
2023/03/07 07:44:21;;;;;;;;;21.67;20.67;;;;;7.86;56.17;99802.31;5039008;28;45250;-75
2023/03/07 07:46:46;;;;;;;;;16.33;15.00;;;;;7.91;56.26;99814.13;5040334;28;45262;-74
2023/03/07 07:49:12;;;;;;;;;21.67;20.67;;;;;7.26;56.16;99702.31;5034749;28;45396;-75
2023/03/07 07:51:39;;;;;;;;;15.00;12.00;;;;;7.62;56.42;99765.84;5036405;28;45356;-73
2023/03/07 07:54:05;;;;;;;;;20.00;17.00;;;;;7.88;56.32;99805.66;5039228;28;45333;-77
2023/03/07 07:56:30;;;;;;;;;22.00;17.67;;;;;7.38;55.99;99739.13;5035030;28;45487;-73
2023/03/07 07:58:56;;;;;;;;;16.00;13.00;;;;;6.77;56.33;99626.91;5017594;28;45968;-75
2023/03/07 08:01:23;;;;;;;;;19.67;14.00;;;;;7.24;56.19;99703.44;5023039;28;46014;-76
2023/03/07 08:03:49;;;;;;;;;12.33;12.33;;;;;7.16;56.25;99687.47;5053124;28;45594;-76
2023/03/07 08:06:23;;;;;;;;;18.00;18.00;;;;;7.04;55.79;99670.19;5058200;28;45389;-81
2023/03/07 08:08:49;;;;;;;;;22.33;20.00;;;;;7.81;55.80;99799.28;5038989;28;46641;-78
2023/03/07 08:11:15;;;;;;;;;21.67;16.67;;;;;7.12;55.72;99664.97;5039159;28;45231;-75
2023/03/07 08:13:41;;;;;;;;;18.00;14.00;;;;;7.14;55.74;99663.00;5037895;28;45731;-77
2023/03/07 08:16:21;;;;;;;;;19.33;16.67;;;;;8.05;55.54;99810.13;5040874;28;45568;-74
2023/03/07 08:18:53;;;;;;;;;21.00;15.33;;;;;8.14;55.80;99818.97;5021413;28;46281;-76
2023/03/07 08:21:20;;;;;;;;;18.00;15.33;;;;;7.66;55.19;99735.47;5035265;28;45491;-76
2023/03/07 08:23:45;;;;;;;;;21.33;18.67;;;;;8.22;55.41;99832.31;5050283;28;45604;-76
2023/03/07 08:26:12;;;;;;;;;18.67;18.33;;;;;8.19;55.31;99800.81;5031034;28;45257;-80
2023/03/07 08:28:41;;;;;;;;;17.00;15.33;;;;;5.74;54.63;99382.50;5034827;28;48046;-78
2023/03/07 08:31:12;;;;;;;;;18.00;16.00;;;;;8.61;54.35;99861.97;5034801;28;45349;-74
2023/03/07 08:33:37;;;;;;;;;21.33;15.67;;;;;7.65;54.23;99686.19;5022572;28;45541;-78
2023/03/07 08:36:04;;;;;;;;;15.00;15.00;;;;;8.60;54.35;99841.75;5034897;28;45438;-77
2023/03/07 08:38:30;;;;;;;;;12.67;12.67;;;;;8.65;54.24;99841.31;5041660;28;45500;-80
2023/03/07 08:41:04;;;;;;;;;21.00;17.33;;;;;7.65;54.30;99677.44;5051500;28;45526;-76
2023/03/07 08:43:31;;;;;;;;;16.67;15.33;;;;;7.82;54.13;99713.63;5074390;27;45376;-76
2023/03/07 08:45:57;;;;;;;;;18.00;17.67;;;;;7.94;54.35;99745.00;5045993;28;45375;-75
2023/03/07 08:48:23;;;;;;;;;16.67;13.00;;;;;7.66;54.75;99681.72;5037729;28;46546;-78
2023/03/07 08:50:49;;;;;;;;;17.33;17.00;;;;;7.88;54.49;99710.38;5038051;28;45863;-75
2023/03/07 08:53:15;;;;;;;;;19.33;19.33;;;;;7.69;54.52;99670.84;5045493;28;45604;-76
2023/03/07 08:55:42;;;;;;;;;18.00;16.00;;;;;7.55;54.60;99656.31;5028343;28;45499;-77
2023/03/07 08:58:08;;;;;;;;;20.33;15.33;;;;;8.50;54.64;99814.53;5041910;28;45842;-78
2023/03/07 09:00:33;;;;;;;;;16.00;15.67;;;;;8.18;54.46;99746.19;5022821;28;45412;-76
2023/03/07 09:03:00;;;;;;;;;16.33;15.33;;;;;8.30;54.45;99765.31;5036851;28;45500;-77
2023/03/07 09:05:26;;;;;;;;;23.67;16.33;;;;;8.31;54.26;99761.69;5038088;28;45401;-75
2023/03/07 09:07:52;;;;;;;;;20.00;20.00;;;;;8.25;54.09;99747.25;5033321;28;46304;-76
2023/03/07 09:10:19;;;;;;;;;14.00;13.00;;;;;8.19;53.85;99732.78;5035093;28;45490;-73
2023/03/07 09:12:45;;;;;;;;;20.33;18.67;;;;;8.61;54.11;99811.66;5036905;28;45548;-77
2023/03/07 09:15:11;;;;;;;;;21.33;20.00;;;;;8.66;53.92;99806.72;5038573;28;45715;-74
2023/03/07 09:17:37;;;;;;;;;15.00;14.67;;;;;7.86;54.20;99672.66;5033871;28;48128;-74
2023/03/07 09:20:04;;;;;;;;;15.00;14.67;;;;;8.86;54.12;99817.13;5039293;28;45424;-73
2023/03/07 09:22:30;;;;;;;;;17.33;16.67;;;;;8.11;53.57;99671.84;5038311;28;45646;-75
2023/03/07 09:24:55;;;;;;;;;17.33;16.00;;;;;9.00;53.49;99811.22;5037230;28;45401;-76
2023/03/07 09:27:20;;;;;;;;;21.33;15.67;;;;;8.96;53.33;99796.63;5036620;28;47644;-73
2023/03/07 09:29:46;;;;;;;;;17.00;14.00;;;;;8.59;53.29;99738.56;5039875;28;45506;-74
2023/03/07 09:32:12;;;;;;;;;20.00;19.33;;;;;9.08;53.21;99798.03;5034710;28;45506;-77
2023/03/07 09:34:38;;;;;;;;;21.00;18.00;;;;;8.75;52.96;99758.06;5029529;28;45686;-79
2023/03/07 09:37:04;;;;;;;;;21.67;17.00;;;;;8.36;53.20;99706.47;5054179;28;45603;-78
2023/03/07 09:39:30;;;;;;;;;18.00;17.00;;;;;8.97;52.95;99775.25;5031779;28;45657;-78
2023/03/07 09:42:15;;;;;;;;;18.67;14.33;;;;;8.79;53.04;99735.56;5036355;28;45266;-74
2023/03/07 09:45:02;;;;;;;;;24.33;18.00;;;;;8.35;52.84;99659.78;5030106;28;45296;-76
2023/03/07 09:48:03;;;;;;;;;19.33;19.33;;;;;9.09;52.74;99773.16;5035208;28;46005;-74
2023/03/07 09:50:50;;;;;;;;;18.67;16.33;;;;;9.25;52.57;99775.06;5025776;28;45277;-78
2023/03/07 09:53:34;;;;;;;;;17.67;16.67;;;;;8.62;52.06;99650.84;5034680;28;45684;-78
2023/03/07 09:56:04;;;;;;;;;17.00;16.67;;;;;9.25;52.15;99733.47;5053515;28;45554;-76
2023/03/07 09:58:30;;;;;;;;;18.67;17.33;;;;;9.41;51.74;99752.09;5047095;28;46384;-73
2023/03/07 10:01:00;;;;;;;;;18.67;18.67;;;;;9.39;51.58;99737.31;5037106;28;45462;-73
2023/03/07 10:03:50;;;;;;;;;24.00;19.33;;;;;9.29;51.39;99718.88;5037025;28;45422;-80
2023/03/07 10:06:25;;;;;;;;;18.00;17.67;;;;;9.21;51.41;99680.88;5038380;28;45458;-71
2023/03/07 10:08:52;;;;;;;;;18.67;15.33;;;;;9.67;51.30;99743.22;5031098;28;47128;-72
2023/03/07 10:11:47;;;;;;;;;19.67;16.00;;;;;9.91;51.21;99766.31;5031464;28;45230;-73
2023/03/07 10:14:37;;;;;;;;;21.00;17.00;;;;;10.13;50.85;99775.47;5028815;28;45451;-72
2023/03/07 10:17:11;;;;;;;;;23.00;20.33;;;;;10.29;50.18;99756.91;5036166;28;45453;-73
2023/03/07 10:19:53;;;;;;;;;20.67;20.67;;;;;10.11;49.83;99727.81;5035993;28;45439;-73
2023/03/07 10:22:27;;;;;;;;;20.67;16.33;;;;;10.36;49.36;99757.91;5032552;28;45389;-73
2023/03/07 10:25:24;;;;;;;;;21.00;18.33;;;;;10.36;49.67;99765.88;5026520;28;45447;-72
2023/03/07 10:27:57;;;;;;;;;21.00;19.00;;;;;10.45;49.26;99756.91;5030517;28;45219;-72
2023/03/07 10:30:23;;;;;;;;;17.00;17.00;;;;;9.64;48.99;99602.88;5036822;28;45191;-73
2023/03/07 10:32:59;;;;;;;;;26.00;20.00;;;;;10.60;48.83;99725.16;5035801;28;45359;-74
2023/03/07 10:35:40;;;;;;;;;16.33;15.67;;;;;11.04;47.92;99751.31;5035218;28;45495;-79
2023/03/07 10:38:24;;;;;;;;;16.67;16.67;;;;;11.32;47.34;99749.88;5022346;28;45491;-73
2023/03/07 10:40:58;;;;;;;;;18.00;17.00;;;;;11.34;46.12;99742.53;5035764;28;45643;-73
2023/03/07 10:43:31;;;;;;;;;19.67;15.33;;;;;11.35;46.84;99738.06;5035420;28;45517;-81
2023/03/07 10:46:14;;;;;;;;;21.67;19.33;;;;;11.22;46.02;99730.66;5035383;28;45300;-76
2023/03/07 10:48:51;;;;;;;;;17.00;14.00;;;;;11.41;46.14;99740.00;5036215;28;45513;-74
2023/03/07 10:51:53;;;;;;;;;17.67;15.33;;;;;10.96;45.69;99646.59;5031967;28;46576;-75
2023/03/07 10:54:28;;;;;;;;;24.00;16.67;;;;;11.58;45.53;99722.94;5035200;28;45428;-74
2023/03/07 10:57:05;;;;;;;;;21.33;20.00;;;;;11.72;45.56;99730.19;5036778;28;45966;-75
2023/03/07 10:59:31;;;;;;;;;18.67;17.33;;;;;11.61;45.44;99717.28;5037108;28;45269;-75
2023/03/07 11:01:59;;;;;;;;;14.67;11.67;;;;;11.77;44.37;99724.34;5036639;28;45895;-75
2023/03/07 11:04:29;;;;;;;;;13.33;12.33;;;;;11.81;43.89;99734.50;5036554;28;45383;-75
2023/03/07 11:06:59;;;;;;;;;17.33;16.00;;;;;11.68;44.02;99707.59;5036818;28;45261;-74
2023/03/07 11:09:30;;;;;;;;;6.00;6.00;;;;;10.78;44.62;99558.28;5037071;28;45269;-74
2023/03/07 11:12:09;;;;;;;;;16.33;13.33;;;;;11.06;43.79;99606.53;5037281;28;45661;-75
2023/03/07 11:14:50;;;;;;;;;15.00;15.00;;;;;11.70;44.24;99699.44;5035945;28;45368;-74
2023/03/07 11:17:25;;;;;;;;;16.33;15.00;;;;;11.72;43.40;99702.75;5035516;28;45534;-76
2023/03/07 11:19:53;;;;;;;;;19.00;15.00;;;;;12.03;43.81;99727.53;5028502;28;45465;-75
2023/03/07 11:22:28;;;;;;;;;12.33;11.33;;;;;11.66;43.30;99648.38;5028926;28;46485;-73
2023/03/07 11:25:14;;;;;;;;;18.67;16.33;;;;;12.11;42.72;99722.13;5036157;28;45419;-77
2023/03/07 11:27:51;;;;;;;;;16.00;15.67;;;;;12.10;43.07;99733.78;5036206;28;45398;-74